Aarau, Switzerland
Current Conditions -  °F | °C
As of 4:50 AM on Sunday 25 Jan 2015 (Local Time) from LSZH Reporting Station
Light Snow Light Snow  
Wind Chill: 30°   Ceiling: 1500
Heat Index: 30°   Visibility: 2.1mi
Dew Point: 30°   Wind: 1mph
Humidity: 100%   Direction: 100°E
Pressure: 30.3"   Gusts: NA
Location:  47.4°N, 8.04°E
Report Text: LSZH 250350Z 10001KT 3500 -SN FEW004 SCT006 BKN015 M01/M01 Q1026 R10/5902// R14/29//// R16/29//// BECMG 5000
Loading
Personal Weather Stations






























Interactive Weather Map New forecast layout! Learn more

10-Day Weather Forecast

Advertisements
Track Severe Weather on mobile